Hlavní strana
METAR-TAF:

METAR-TAF

Letiště :

Blytheville, Arkansas, Spojené státy americké

zeměpisná šířka: 35-58N, zeměpisná délka: 089-57W, výška: 78 m

Aktuální stav počasí

Zpráva byla vytvořena před 16 minutami, v 13:50 UTC
Jihojihozápadní vítr 7 kt
Teplota 3°C
Vlhkost vzduchu 87%
Tlak 1022 hPa
Viditelnost: 16.1 km
Jasno

METAR: KBYH 031350Z 21007KT 10SM SKC 03/01 A3017

Čas: 08:06 (14:06 UTC)


TAF: chybějící

Stav a předpovědi počasí z více než 4 000 letišť (zprávy METAR a TAF).

Červené a žluté tečky na mapě představují dostupné meteorologické stanice.

Když kurzor umístíte na tečku, zobrazí se název stanice.

Pak kliknutím zobrazíte stav a předpověď počasí.

Chcete-li změnit mapu, kliknutím na zelené tlačítko se znaménkem +mapu přiblížíte, kliknutím na zelené tlačítko se znaménkem – mapu oddálíte a kliknutím na zelené šipky přejdete na sousední mapy.


METAR-TAF: